sensor_id;sensor_type;location;lat;lon;timestamp;temperature;humidity
21487;DHT22;10905;50.822;4.336;2023-03-05T00:01:12;7.00;99.90
21487;DHT22;10905;50.822;4.336;2023-03-05T00:03:38;7.00;99.90
21487;DHT22;10905;50.822;4.336;2023-03-05T00:06:04;7.00;99.90
21487;DHT22;10905;50.822;4.336;2023-03-05T00:08:31;7.10;99.90
21487;DHT22;10905;50.822;4.336;2023-03-05T00:11:00;7.10;99.90
21487;DHT22;10905;50.822;4.336;2023-03-05T00:13:27;7.20;99.90
21487;DHT22;10905;50.822;4.336;2023-03-05T00:15:54;7.20;99.90
21487;DHT22;10905;50.822;4.336;2023-03-05T00:18:22;7.20;99.90
21487;DHT22;10905;50.822;4.336;2023-03-05T00:20:48;7.10;99.90
21487;DHT22;10905;50.822;4.336;2023-03-05T00:23:15;7.10;99.90
21487;DHT22;10905;50.822;4.336;2023-03-05T00:25:41;7.10;99.90
21487;DHT22;10905;50.822;4.336;2023-03-05T00:28:07;7.10;99.90
21487;DHT22;10905;50.822;4.336;2023-03-05T00:30:33;7.10;99.90
21487;DHT22;10905;50.822;4.336;2023-03-05T00:33:00;7.10;99.90
21487;DHT22;10905;50.822;4.336;2023-03-05T00:35:26;7.10;99.90
21487;DHT22;10905;50.822;4.336;2023-03-05T00:37:53;7.10;99.90
21487;DHT22;10905;50.822;4.336;2023-03-05T00:40:19;7.00;99.90
21487;DHT22;10905;50.822;4.336;2023-03-05T00:42:48;6.90;99.90
21487;DHT22;10905;50.822;4.336;2023-03-05T00:45:13;6.70;99.90
21487;DHT22;10905;50.822;4.336;2023-03-05T00:47:39;6.70;99.90
21487;DHT22;10905;50.822;4.336;2023-03-05T00:50:06;6.60;99.90
21487;DHT22;10905;50.822;4.336;2023-03-05T00:52:32;6.50;99.90
21487;DHT22;10905;50.822;4.336;2023-03-05T00:54:58;6.50;99.90
21487;DHT22;10905;50.822;4.336;2023-03-05T00:57:23;6.60;99.90
21487;DHT22;10905;50.822;4.336;2023-03-05T00:59:49;6.60;99.90
21487;DHT22;10905;50.822;4.336;2023-03-05T01:02:14;6.50;99.90
21487;DHT22;10905;50.822;4.336;2023-03-05T01:04:40;6.50;99.90
21487;DHT22;10905;50.822;4.336;2023-03-05T01:07:07;6.50;99.90
21487;DHT22;10905;50.822;4.336;2023-03-05T01:09:33;6.40;99.90
21487;DHT22;10905;50.822;4.336;2023-03-05T01:11:59;6.40;99.90
21487;DHT22;10905;50.822;4.336;2023-03-05T01:14:24;6.30;99.90
21487;DHT22;10905;50.822;4.336;2023-03-05T01:16:52;6.30;99.90
21487;DHT22;10905;50.822;4.336;2023-03-05T01:19:18;6.40;99.90
21487;DHT22;10905;50.822;4.336;2023-03-05T01:21:43;6.40;99.90
21487;DHT22;10905;50.822;4.336;2023-03-05T01:24:10;6.40;99.90
21487;DHT22;10905;50.822;4.336;2023-03-05T01:26:36;6.50;99.90
21487;DHT22;10905;50.822;4.336;2023-03-05T01:29:03;6.50;99.90
21487;DHT22;10905;50.822;4.336;2023-03-05T01:31:28;6.40;99.90
21487;DHT22;10905;50.822;4.336;2023-03-05T01:33:54;6.50;99.90
21487;DHT22;10905;50.822;4.336;2023-03-05T01:36:22;6.60;99.90
21487;DHT22;10905;50.822;4.336;2023-03-05T01:38:49;6.60;99.90
21487;DHT22;10905;50.822;4.336;2023-03-05T01:41:18;6.70;99.90
21487;DHT22;10905;50.822;4.336;2023-03-05T01:43:45;6.70;99.90
21487;DHT22;10905;50.822;4.336;2023-03-05T01:46:21;6.60;99.90
21487;DHT22;10905;50.822;4.336;2023-03-05T01:51:21;6.60;99.90
21487;DHT22;10905;50.822;4.336;2023-03-05T01:53:48;6.50;99.90
21487;DHT22;10905;50.822;4.336;2023-03-05T01:56:16;6.50;99.90
21487;DHT22;10905;50.822;4.336;2023-03-05T01:58:45;6.40;99.90
21487;DHT22;10905;50.822;4.336;2023-03-05T02:01:11;6.50;99.90
21487;DHT22;10905;50.822;4.336;2023-03-05T02:03:38;6.50;99.90
21487;DHT22;10905;50.822;4.336;2023-03-05T02:06:04;6.50;99.90
21487;DHT22;10905;50.822;4.336;2023-03-05T02:08:30;6.50;99.90
21487;DHT22;10905;50.822;4.336;2023-03-05T02:10:56;6.60;99.90
21487;DHT22;10905;50.822;4.336;2023-03-05T02:13:32;6.60;99.90
21487;DHT22;10905;50.822;4.336;2023-03-05T02:15:59;6.60;99.90
21487;DHT22;10905;50.822;4.336;2023-03-05T02:18:26;6.70;99.90
21487;DHT22;10905;50.822;4.336;2023-03-05T02:23:23;6.70;99.90
21487;DHT22;10905;50.822;4.336;2023-03-05T02:25:51;6.50;99.90
21487;DHT22;10905;50.822;4.336;2023-03-05T02:28:22;6.30;99.90
21487;DHT22;10905;50.822;4.336;2023-03-05T02:30:49;6.40;99.90
21487;DHT22;10905;50.822;4.336;2023-03-05T02:33:17;6.30;99.90
21487;DHT22;10905;50.822;4.336;2023-03-05T02:35:43;6.40;99.90
21487;DHT22;10905;50.822;4.336;2023-03-05T02:38:11;6.40;99.90
21487;DHT22;10905;50.822;4.336;2023-03-05T02:40:38;6.40;99.90
21487;DHT22;10905;50.822;4.336;2023-03-05T02:43:04;6.50;99.90
21487;DHT22;10905;50.822;4.336;2023-03-05T02:45:30;6.50;99.90
21487;DHT22;10905;50.822;4.336;2023-03-05T02:47:56;6.60;99.90
21487;DHT22;10905;50.822;4.336;2023-03-05T02:50:22;6.60;99.90
21487;DHT22;10905;50.822;4.336;2023-03-05T02:52:48;6.60;99.90
21487;DHT22;10905;50.822;4.336;2023-03-05T02:55:13;6.50;99.90
21487;DHT22;10905;50.822;4.336;2023-03-05T02:57:40;6.60;99.90
21487;DHT22;10905;50.822;4.336;2023-03-05T03:00:06;6.50;99.90
21487;DHT22;10905;50.822;4.336;2023-03-05T03:02:33;6.50;99.90
21487;DHT22;10905;50.822;4.336;2023-03-05T03:05:00;6.50;99.90
21487;DHT22;10905;50.822;4.336;2023-03-05T03:07:26;6.60;99.90
21487;DHT22;10905;50.822;4.336;2023-03-05T03:09:52;6.70;99.90
21487;DHT22;10905;50.822;4.336;2023-03-05T03:12:18;6.80;99.90
21487;DHT22;10905;50.822;4.336;2023-03-05T03:14:44;6.70;99.90
21487;DHT22;10905;50.822;4.336;2023-03-05T03:17:12;6.60;99.90
21487;DHT22;10905;50.822;4.336;2023-03-05T03:19:40;6.70;99.90
21487;DHT22;10905;50.822;4.336;2023-03-05T03:22:08;6.60;99.90
21487;DHT22;10905;50.822;4.336;2023-03-05T03:24:36;6.60;99.90
21487;DHT22;10905;50.822;4.336;2023-03-05T03:27:02;6.40;99.90
21487;DHT22;10905;50.822;4.336;2023-03-05T03:29:28;6.40;99.90
21487;DHT22;10905;50.822;4.336;2023-03-05T03:31:55;6.40;99.90
21487;DHT22;10905;50.822;4.336;2023-03-05T03:34:22;6.40;99.90
21487;DHT22;10905;50.822;4.336;2023-03-05T03:36:49;6.40;99.90
21487;DHT22;10905;50.822;4.336;2023-03-05T03:39:16;6.40;99.90
21487;DHT22;10905;50.822;4.336;2023-03-05T03:41:50;6.30;99.90
21487;DHT22;10905;50.822;4.336;2023-03-05T03:44:17;6.40;99.90
21487;DHT22;10905;50.822;4.336;2023-03-05T03:46:44;6.40;99.90
21487;DHT22;10905;50.822;4.336;2023-03-05T03:49:16;6.40;99.90
21487;DHT22;10905;50.822;4.336;2023-03-05T03:51:42;6.40;99.90
21487;DHT22;10905;50.822;4.336;2023-03-05T03:54:07;6.30;99.90
21487;DHT22;10905;50.822;4.336;2023-03-05T03:56:33;6.40;99.90
21487;DHT22;10905;50.822;4.336;2023-03-05T03:58:59;6.50;99.90
21487;DHT22;10905;50.822;4.336;2023-03-05T04:01:24;6.60;99.90
21487;DHT22;10905;50.822;4.336;2023-03-05T04:03:50;6.50;99.90
21487;DHT22;10905;50.822;4.336;2023-03-05T04:06:17;6.40;99.90
21487;DHT22;10905;50.822;4.336;2023-03-05T04:08:43;6.40;99.90
21487;DHT22;10905;50.822;4.336;2023-03-05T04:11:08;6.30;99.90
21487;DHT22;10905;50.822;4.336;2023-03-05T04:13:34;6.30;99.90
21487;DHT22;10905;50.822;4.336;2023-03-05T04:16:00;6.40;99.90
21487;DHT22;10905;50.822;4.336;2023-03-05T04:18:27;6.30;99.90
21487;DHT22;10905;50.822;4.336;2023-03-05T04:20:59;6.30;99.90
21487;DHT22;10905;50.822;4.336;2023-03-05T04:23:27;6.30;99.90
21487;DHT22;10905;50.822;4.336;2023-03-05T04:26:05;6.30;99.90
21487;DHT22;10905;50.822;4.336;2023-03-05T04:28:41;6.30;99.90
21487;DHT22;10905;50.822;4.336;2023-03-05T04:31:07;6.30;99.90
21487;DHT22;10905;50.822;4.336;2023-03-05T04:33:36;6.30;99.90
21487;DHT22;10905;50.822;4.336;2023-03-05T04:36:03;6.30;99.90
21487;DHT22;10905;50.822;4.336;2023-03-05T04:38:30;6.40;99.90
21487;DHT22;10905;50.822;4.336;2023-03-05T04:40:57;6.30;99.90
21487;DHT22;10905;50.822;4.336;2023-03-05T04:43:23;6.30;99.90
21487;DHT22;10905;50.822;4.336;2023-03-05T04:45:48;6.20;99.90
21487;DHT22;10905;50.822;4.336;2023-03-05T04:48:14;6.20;99.90
21487;DHT22;10905;50.822;4.336;2023-03-05T04:50:41;6.10;99.90
21487;DHT22;10905;50.822;4.336;2023-03-05T04:53:08;6.20;99.90
21487;DHT22;10905;50.822;4.336;2023-03-05T04:55:35;6.20;99.90
21487;DHT22;10905;50.822;4.336;2023-03-05T04:58:01;6.20;99.90
21487;DHT22;10905;50.822;4.336;2023-03-05T05:00:28;6.10;99.90
21487;DHT22;10905;50.822;4.336;2023-03-05T05:02:54;6.10;99.90
21487;DHT22;10905;50.822;4.336;2023-03-05T05:05:22;6.20;99.90
21487;DHT22;10905;50.822;4.336;2023-03-05T05:07:48;6.10;99.90
21487;DHT22;10905;50.822;4.336;2023-03-05T05:10:15;6.20;99.90
21487;DHT22;10905;50.822;4.336;2023-03-05T05:12:41;6.20;99.90
21487;DHT22;10905;50.822;4.336;2023-03-05T05:15:10;6.20;99.90
21487;DHT22;10905;50.822;4.336;2023-03-05T05:17:36;6.20;99.90
21487;DHT22;10905;50.822;4.336;2023-03-05T05:20:04;6.20;99.90
21487;DHT22;10905;50.822;4.336;2023-03-05T05:22:33;6.20;99.90
21487;DHT22;10905;50.822;4.336;2023-03-05T05:24:59;6.20;99.90
21487;DHT22;10905;50.822;4.336;2023-03-05T05:27:25;6.10;99.90
21487;DHT22;10905;50.822;4.336;2023-03-05T05:29:50;6.10;99.90
21487;DHT22;10905;50.822;4.336;2023-03-05T05:32:18;6.10;99.90
21487;DHT22;10905;50.822;4.336;2023-03-05T05:34:44;6.10;99.90
21487;DHT22;10905;50.822;4.336;2023-03-05T05:37:10;6.10;99.90
21487;DHT22;10905;50.822;4.336;2023-03-05T05:39:36;6.10;99.90
21487;DHT22;10905;50.822;4.336;2023-03-05T05:42:05;6.10;99.90
21487;DHT22;10905;50.822;4.336;2023-03-05T05:44:31;6.10;99.90
21487;DHT22;10905;50.822;4.336;2023-03-05T05:46:59;6.10;99.90
21487;DHT22;10905;50.822;4.336;2023-03-05T05:49:24;6.00;99.90
21487;DHT22;10905;50.822;4.336;2023-03-05T05:51:50;6.00;99.90
21487;DHT22;10905;50.822;4.336;2023-03-05T05:54:17;6.00;99.90
21487;DHT22;10905;50.822;4.336;2023-03-05T05:56:42;6.00;99.90
21487;DHT22;10905;50.822;4.336;2023-03-05T05:59:09;6.10;99.90
21487;DHT22;10905;50.822;4.336;2023-03-05T06:01:35;6.20;99.90
21487;DHT22;10905;50.822;4.336;2023-03-05T06:04:01;6.10;99.90
21487;DHT22;10905;50.822;4.336;2023-03-05T06:06:28;6.00;99.90
21487;DHT22;10905;50.822;4.336;2023-03-05T06:08:54;6.00;99.90
21487;DHT22;10905;50.822;4.336;2023-03-05T06:11:21;6.00;99.90
21487;DHT22;10905;50.822;4.336;2023-03-05T06:13:47;5.90;99.90
21487;DHT22;10905;50.822;4.336;2023-03-05T06:16:16;6.00;99.90
21487;DHT22;10905;50.822;4.336;2023-03-05T06:18:42;6.00;99.90
21487;DHT22;10905;50.822;4.336;2023-03-05T06:21:14;6.00;99.90
21487;DHT22;10905;50.822;4.336;2023-03-05T06:23:40;6.00;99.90
21487;DHT22;10905;50.822;4.336;2023-03-05T06:26:10;6.00;99.90
21487;DHT22;10905;50.822;4.336;2023-03-05T06:28:38;6.00;99.90
21487;DHT22;10905;50.822;4.336;2023-03-05T06:31:09;6.00;99.90
21487;DHT22;10905;50.822;4.336;2023-03-05T06:33:38;6.10;99.90
21487;DHT22;10905;50.822;4.336;2023-03-05T06:36:06;6.10;99.90
21487;DHT22;10905;50.822;4.336;2023-03-05T06:38:32;6.10;99.90
21487;DHT22;10905;50.822;4.336;2023-03-05T06:41:03;6.20;99.90
21487;DHT22;10905;50.822;4.336;2023-03-05T06:43:34;6.20;99.90
21487;DHT22;10905;50.822;4.336;2023-03-05T06:46:01;6.10;99.90
21487;DHT22;10905;50.822;4.336;2023-03-05T06:48:27;6.10;99.90
21487;DHT22;10905;50.822;4.336;2023-03-05T06:50:54;6.10;99.90
21487;DHT22;10905;50.822;4.336;2023-03-05T06:53:19;6.00;99.90
21487;DHT22;10905;50.822;4.336;2023-03-05T06:55:45;6.10;99.90
21487;DHT22;10905;50.822;4.336;2023-03-05T06:58:10;6.00;99.90
21487;DHT22;10905;50.822;4.336;2023-03-05T07:00:36;6.00;99.90
21487;DHT22;10905;50.822;4.336;2023-03-05T07:03:02;6.10;99.90
21487;DHT22;10905;50.822;4.336;2023-03-05T07:05:28;6.10;99.90
21487;DHT22;10905;50.822;4.336;2023-03-05T07:07:54;6.00;99.90
21487;DHT22;10905;50.822;4.336;2023-03-05T07:10:19;6.10;99.90
21487;DHT22;10905;50.822;4.336;2023-03-05T07:12:45;6.20;99.90
21487;DHT22;10905;50.822;4.336;2023-03-05T07:15:11;6.10;99.90
21487;DHT22;10905;50.822;4.336;2023-03-05T07:17:38;6.20;99.90
21487;DHT22;10905;50.822;4.336;2023-03-05T07:20:04;6.10;99.90
21487;DHT22;10905;50.822;4.336;2023-03-05T07:22:30;6.20;99.90
21487;DHT22;10905;50.822;4.336;2023-03-05T07:24:57;6.30;99.90
21487;DHT22;10905;50.822;4.336;2023-03-05T07:27:23;6.30;99.90
21487;DHT22;10905;50.822;4.336;2023-03-05T07:29:50;6.40;99.90
21487;DHT22;10905;50.822;4.336;2023-03-05T07:32:15;6.40;99.90
21487;DHT22;10905;50.822;4.336;2023-03-05T07:34:41;6.40;99.90
21487;DHT22;10905;50.822;4.336;2023-03-05T07:37:07;6.60;99.90
21487;DHT22;10905;50.822;4.336;2023-03-05T07:39:32;6.60;99.90
21487;DHT22;10905;50.822;4.336;2023-03-05T07:41:58;6.60;99.90
21487;DHT22;10905;50.822;4.336;2023-03-05T07:44:24;6.60;99.90
21487;DHT22;10905;50.822;4.336;2023-03-05T07:46:49;6.60;99.90
21487;DHT22;10905;50.822;4.336;2023-03-05T07:49:15;6.60;99.90
21487;DHT22;10905;50.822;4.336;2023-03-05T07:51:41;6.70;99.90
21487;DHT22;10905;50.822;4.336;2023-03-05T07:54:07;6.70;99.90
21487;DHT22;10905;50.822;4.336;2023-03-05T07:56:34;6.80;99.90
21487;DHT22;10905;50.822;4.336;2023-03-05T07:59:03;6.80;99.90
21487;DHT22;10905;50.822;4.336;2023-03-05T08:01:30;6.80;99.90
21487;DHT22;10905;50.822;4.336;2023-03-05T08:03:56;6.80;99.90
21487;DHT22;10905;50.822;4.336;2023-03-05T08:06:21;6.90;99.90
21487;DHT22;10905;50.822;4.336;2023-03-05T08:08:48;6.90;99.90
21487;DHT22;10905;50.822;4.336;2023-03-05T08:11:16;7.00;99.90
21487;DHT22;10905;50.822;4.336;2023-03-05T08:13:43;7.10;99.90
21487;DHT22;10905;50.822;4.336;2023-03-05T08:16:18;7.20;99.90
21487;DHT22;10905;50.822;4.336;2023-03-05T08:18:45;7.30;99.90
21487;DHT22;10905;50.822;4.336;2023-03-05T08:21:25;7.30;99.90
21487;DHT22;10905;50.822;4.336;2023-03-05T08:23:51;7.20;99.90
21487;DHT22;10905;50.822;4.336;2023-03-05T08:26:20;7.20;99.90
21487;DHT22;10905;50.822;4.336;2023-03-05T08:28:46;7.30;99.90
21487;DHT22;10905;50.822;4.336;2023-03-05T08:31:13;7.20;99.90
21487;DHT22;10905;50.822;4.336;2023-03-05T08:33:40;7.20;99.90
21487;DHT22;10905;50.822;4.336;2023-03-05T08:36:07;7.30;99.90
21487;DHT22;10905;50.822;4.336;2023-03-05T08:38:35;7.40;99.90
21487;DHT22;10905;50.822;4.336;2023-03-05T08:41:07;7.20;99.90
21487;DHT22;10905;50.822;4.336;2023-03-05T08:43:33;7.20;99.90
21487;DHT22;10905;50.822;4.336;2023-03-05T08:45:59;7.20;99.90
21487;DHT22;10905;50.822;4.336;2023-03-05T08:48:26;7.30;99.90
21487;DHT22;10905;50.822;4.336;2023-03-05T08:50:51;7.40;99.90
21487;DHT22;10905;50.822;4.336;2023-03-05T08:53:17;7.50;99.90
21487;DHT22;10905;50.822;4.336;2023-03-05T08:56:08;7.60;99.90
21487;DHT22;10905;50.822;4.336;2023-03-05T08:58:37;7.60;99.90
21487;DHT22;10905;50.822;4.336;2023-03-05T09:01:13;7.60;99.90
21487;DHT22;10905;50.822;4.336;2023-03-05T09:04:05;7.70;99.90
21487;DHT22;10905;50.822;4.336;2023-03-05T09:06:31;7.80;99.90
21487;DHT22;10905;50.822;4.336;2023-03-05T09:08:59;7.90;99.90
21487;DHT22;10905;50.822;4.336;2023-03-05T09:11:26;8.00;99.90
21487;DHT22;10905;50.822;4.336;2023-03-05T09:14:17;7.90;99.90
21487;DHT22;10905;50.822;4.336;2023-03-05T09:16:45;8.00;99.90
21487;DHT22;10905;50.822;4.336;2023-03-05T09:19:12;8.00;99.90
21487;DHT22;10905;50.822;4.336;2023-03-05T09:21:40;8.00;99.90
21487;DHT22;10905;50.822;4.336;2023-03-05T09:24:14;7.80;99.90
21487;DHT22;10905;50.822;4.336;2023-03-05T09:26:41;7.90;99.90
21487;DHT22;10905;50.822;4.336;2023-03-05T09:29:10;7.80;99.90
21487;DHT22;10905;50.822;4.336;2023-03-05T09:31:40;7.60;99.90
21487;DHT22;10905;50.822;4.336;2023-03-05T09:34:16;7.40;99.90
21487;DHT22;10905;50.822;4.336;2023-03-05T09:37:11;7.20;99.90
21487;DHT22;10905;50.822;4.336;2023-03-05T09:39:41;7.20;99.90
21487;DHT22;10905;50.822;4.336;2023-03-05T09:42:48;7.20;99.90
21487;DHT22;10905;50.822;4.336;2023-03-05T09:49:02;7.20;99.90
21487;DHT22;10905;50.822;4.336;2023-03-05T09:51:36;7.20;99.90
21487;DHT22;10905;50.822;4.336;2023-03-05T09:54:37;7.10;99.90
21487;DHT22;10905;50.822;4.336;2023-03-05T09:57:23;7.00;99.90
21487;DHT22;10905;50.822;4.336;2023-03-05T10:00:02;6.70;99.90
21487;DHT22;10905;50.822;4.336;2023-03-05T10:02:35;6.20;99.90
21487;DHT22;10905;50.822;4.336;2023-03-05T10:05:23;6.00;99.90
21487;DHT22;10905;50.822;4.336;2023-03-05T10:08:11;5.80;99.90
21487;DHT22;10905;50.822;4.336;2023-03-05T10:10:52;5.90;99.90
21487;DHT22;10905;50.822;4.336;2023-03-05T10:13:37;6.00;99.90
21487;DHT22;10905;50.822;4.336;2023-03-05T10:28:47;5.60;99.90
21487;DHT22;10905;50.822;4.336;2023-03-05T10:38:29;5.60;99.90
21487;DHT22;10905;50.822;4.336;2023-03-05T10:45:14;5.80;99.90
21487;DHT22;10905;50.822;4.336;2023-03-05T10:48:06;5.90;99.90
21487;DHT22;10905;50.822;4.336;2023-03-05T10:50:49;6.00;99.90
21487;DHT22;10905;50.822;4.336;2023-03-05T11:01:27;6.20;99.90
21487;DHT22;10905;50.822;4.336;2023-03-05T11:04:29;6.40;99.90
21487;DHT22;10905;50.822;4.336;2023-03-05T11:13:28;7.20;99.90
21487;DHT22;10905;50.822;4.336;2023-03-05T11:16:03;7.30;99.90
21487;DHT22;10905;50.822;4.336;2023-03-05T11:18:32;7.30;99.90
21487;DHT22;10905;50.822;4.336;2023-03-05T11:21:38;7.40;99.90
21487;DHT22;10905;50.822;4.336;2023-03-05T11:25:03;7.50;99.90
21487;DHT22;10905;50.822;4.336;2023-03-05T11:28:36;7.60;99.90
21487;DHT22;10905;50.822;4.336;2023-03-05T11:31:37;7.90;99.90
21487;DHT22;10905;50.822;4.336;2023-03-05T11:34:06;8.10;99.90
21487;DHT22;10905;50.822;4.336;2023-03-05T11:36:40;8.20;99.90
21487;DHT22;10905;50.822;4.336;2023-03-05T11:39:10;8.30;99.90
21487;DHT22;10905;50.822;4.336;2023-03-05T11:41:58;8.30;99.90
21487;DHT22;10905;50.822;4.336;2023-03-05T11:50:09;8.40;99.90
21487;DHT22;10905;50.822;4.336;2023-03-05T11:53:08;8.40;99.90
21487;DHT22;10905;50.822;4.336;2023-03-05T11:55:48;8.40;99.90
21487;DHT22;10905;50.822;4.336;2023-03-05T11:59:29;8.70;99.90
21487;DHT22;10905;50.822;4.336;2023-03-05T12:02:32;8.70;99.90
21487;DHT22;10905;50.822;4.336;2023-03-05T12:05:44;8.80;99.90
21487;DHT22;10905;50.822;4.336;2023-03-05T12:08:14;8.80;99.90
21487;DHT22;10905;50.822;4.336;2023-03-05T12:12:08;8.80;99.90
21487;DHT22;10905;50.822;4.336;2023-03-05T12:14:49;8.70;99.90
21487;DHT22;10905;50.822;4.336;2023-03-05T12:18:11;8.80;99.90
21487;DHT22;10905;50.822;4.336;2023-03-05T12:23:58;8.80;99.90
21487;DHT22;10905;50.822;4.336;2023-03-05T12:33:44;9.20;99.90
21487;DHT22;10905;50.822;4.336;2023-03-05T12:36:59;9.00;99.90
21487;DHT22;10905;50.822;4.336;2023-03-05T12:40:34;8.90;99.90
21487;DHT22;10905;50.822;4.336;2023-03-05T12:43:36;8.90;99.90
21487;DHT22;10905;50.822;4.336;2023-03-05T12:46:21;8.90;99.90
21487;DHT22;10905;50.822;4.336;2023-03-05T12:51:56;8.40;99.90
21487;DHT22;10905;50.822;4.336;2023-03-05T12:54:38;8.20;99.90
21487;DHT22;10905;50.822;4.336;2023-03-05T12:57:21;8.10;99.90
21487;DHT22;10905;50.822;4.336;2023-03-05T13:00:11;8.10;99.90
21487;DHT22;10905;50.822;4.336;2023-03-05T13:02:42;7.90;99.90
21487;DHT22;10905;50.822;4.336;2023-03-05T13:08:28;7.70;99.90
21487;DHT22;10905;50.822;4.336;2023-03-05T13:11:17;7.60;99.90
21487;DHT22;10905;50.822;4.336;2023-03-05T13:13:49;7.60;99.90
21487;DHT22;10905;50.822;4.336;2023-03-05T13:16:18;7.60;99.90
21487;DHT22;10905;50.822;4.336;2023-03-05T13:18:50;7.60;99.90
21487;DHT22;10905;50.822;4.336;2023-03-05T13:21:36;7.70;99.90
21487;DHT22;10905;50.822;4.336;2023-03-05T13:24:02;7.70;99.90
21487;DHT22;10905;50.822;4.336;2023-03-05T13:26:40;7.80;99.90
21487;DHT22;10905;50.822;4.336;2023-03-05T13:29:21;7.90;99.90
21487;DHT22;10905;50.822;4.336;2023-03-05T13:32:00;8.10;99.90
21487;DHT22;10905;50.822;4.336;2023-03-05T13:34:42;8.10;99.90
21487;DHT22;10905;50.822;4.336;2023-03-05T13:37:20;8.10;99.90
21487;DHT22;10905;50.822;4.336;2023-03-05T13:40:14;8.30;99.90
21487;DHT22;10905;50.822;4.336;2023-03-05T13:42:48;8.20;99.90
21487;DHT22;10905;50.822;4.336;2023-03-05T13:45:43;8.20;99.90
21487;DHT22;10905;50.822;4.336;2023-03-05T13:48:25;8.00;99.90
21487;DHT22;10905;50.822;4.336;2023-03-05T13:51:42;7.60;99.90
21487;DHT22;10905;50.822;4.336;2023-03-05T13:54:31;7.30;99.90
21487;DHT22;10905;50.822;4.336;2023-03-05T13:57:39;7.00;99.90
21487;DHT22;10905;50.822;4.336;2023-03-05T14:00:43;7.10;99.90
21487;DHT22;10905;50.822;4.336;2023-03-05T14:03:52;7.30;99.90
21487;DHT22;10905;50.822;4.336;2023-03-05T14:06:29;7.20;99.90
21487;DHT22;10905;50.822;4.336;2023-03-05T14:09:42;7.20;99.90
21487;DHT22;10905;50.822;4.336;2023-03-05T14:12:32;7.40;99.90
21487;DHT22;10905;50.822;4.336;2023-03-05T14:15:39;7.50;99.90
21487;DHT22;10905;50.822;4.336;2023-03-05T14:18:19;7.50;99.90
21487;DHT22;10905;50.822;4.336;2023-03-05T14:21:10;7.50;99.90
21487;DHT22;10905;50.822;4.336;2023-03-05T14:24:29;7.30;99.90
21487;DHT22;10905;50.822;4.336;2023-03-05T14:27:06;7.20;99.90
21487;DHT22;10905;50.822;4.336;2023-03-05T14:29:56;7.30;99.90
21487;DHT22;10905;50.822;4.336;2023-03-05T14:32:33;7.20;99.90
21487;DHT22;10905;50.822;4.336;2023-03-05T14:35:22;7.10;99.90
21487;DHT22;10905;50.822;4.336;2023-03-05T14:38:00;7.00;99.90
21487;DHT22;10905;50.822;4.336;2023-03-05T14:40:40;7.10;99.90
21487;DHT22;10905;50.822;4.336;2023-03-05T14:43:11;7.20;99.90
21487;DHT22;10905;50.822;4.336;2023-03-05T14:45:42;7.20;99.90
21487;DHT22;10905;50.822;4.336;2023-03-05T14:48:15;7.20;99.90
21487;DHT22;10905;50.822;4.336;2023-03-05T14:51:04;7.30;99.90
21487;DHT22;10905;50.822;4.336;2023-03-05T14:53:53;7.20;99.90
21487;DHT22;10905;50.822;4.336;2023-03-05T14:56:27;7.30;99.90
21487;DHT22;10905;50.822;4.336;2023-03-05T14:59:42;7.40;99.90
21487;DHT22;10905;50.822;4.336;2023-03-05T15:02:31;7.20;99.90
21487;DHT22;10905;50.822;4.336;2023-03-05T15:05:00;7.30;99.90
21487;DHT22;10905;50.822;4.336;2023-03-05T15:07:31;7.40;99.90
21487;DHT22;10905;50.822;4.336;2023-03-05T15:10:28;7.60;99.90
21487;DHT22;10905;50.822;4.336;2023-03-05T15:13:06;7.60;99.90
21487;DHT22;10905;50.822;4.336;2023-03-05T15:15:56;7.60;99.90
21487;DHT22;10905;50.822;4.336;2023-03-05T15:18:22;7.60;99.90
21487;DHT22;10905;50.822;4.336;2023-03-05T15:20:48;7.40;99.90
21487;DHT22;10905;50.822;4.336;2023-03-05T15:23:17;7.40;99.90
21487;DHT22;10905;50.822;4.336;2023-03-05T15:25:43;7.30;99.90
21487;DHT22;10905;50.822;4.336;2023-03-05T15:28:08;7.20;99.90
21487;DHT22;10905;50.822;4.336;2023-03-05T15:30:41;7.40;99.90
21487;DHT22;10905;50.822;4.336;2023-03-05T15:33:09;7.40;99.90
21487;DHT22;10905;50.822;4.336;2023-03-05T15:35:36;7.30;99.90
21487;DHT22;10905;50.822;4.336;2023-03-05T15:38:01;7.30;99.90
21487;DHT22;10905;50.822;4.336;2023-03-05T15:40:27;7.30;99.90
21487;DHT22;10905;50.822;4.336;2023-03-05T15:42:54;7.30;99.90
21487;DHT22;10905;50.822;4.336;2023-03-05T15:45:20;7.30;99.90
21487;DHT22;10905;50.822;4.336;2023-03-05T15:47:50;7.20;99.90
21487;DHT22;10905;50.822;4.336;2023-03-05T15:50:18;7.10;99.90
21487;DHT22;10905;50.822;4.336;2023-03-05T15:52:44;7.10;99.90
21487;DHT22;10905;50.822;4.336;2023-03-05T15:55:10;6.80;99.90
21487;DHT22;10905;50.822;4.336;2023-03-05T15:57:37;6.80;99.90
21487;DHT22;10905;50.822;4.336;2023-03-05T16:00:07;6.90;99.90
21487;DHT22;10905;50.822;4.336;2023-03-05T16:02:33;7.00;99.90
21487;DHT22;10905;50.822;4.336;2023-03-05T16:04:59;7.10;99.90
21487;DHT22;10905;50.822;4.336;2023-03-05T16:07:24;7.20;99.90
21487;DHT22;10905;50.822;4.336;2023-03-05T16:09:51;7.20;99.90
21487;DHT22;10905;50.822;4.336;2023-03-05T16:12:21;7.20;99.90
21487;DHT22;10905;50.822;4.336;2023-03-05T16:14:49;7.10;99.90
21487;DHT22;10905;50.822;4.336;2023-03-05T16:17:15;7.00;99.90
21487;DHT22;10905;50.822;4.336;2023-03-05T16:19:45;6.90;99.90
21487;DHT22;10905;50.822;4.336;2023-03-05T16:22:11;6.90;99.90
21487;DHT22;10905;50.822;4.336;2023-03-05T16:24:36;6.80;99.90
21487;DHT22;10905;50.822;4.336;2023-03-05T16:27:02;6.80;99.90
21487;DHT22;10905;50.822;4.336;2023-03-05T16:29:29;6.80;99.90
21487;DHT22;10905;50.822;4.336;2023-03-05T16:31:57;6.80;99.90
21487;DHT22;10905;50.822;4.336;2023-03-05T16:34:22;6.80;99.90
21487;DHT22;10905;50.822;4.336;2023-03-05T16:36:49;6.90;99.90
21487;DHT22;10905;50.822;4.336;2023-03-05T16:39:18;6.80;99.90
21487;DHT22;10905;50.822;4.336;2023-03-05T16:41:44;6.80;99.90
21487;DHT22;10905;50.822;4.336;2023-03-05T16:44:10;6.70;99.90
21487;DHT22;10905;50.822;4.336;2023-03-05T16:46:36;6.80;99.90
21487;DHT22;10905;50.822;4.336;2023-03-05T16:49:03;6.70;99.90
21487;DHT22;10905;50.822;4.336;2023-03-05T16:51:29;6.60;99.90
21487;DHT22;10905;50.822;4.336;2023-03-05T16:53:55;6.70;99.90
21487;DHT22;10905;50.822;4.336;2023-03-05T16:56:21;6.80;99.90
21487;DHT22;10905;50.822;4.336;2023-03-05T16:58:47;7.00;99.90
21487;DHT22;10905;50.822;4.336;2023-03-05T17:01:17;6.90;99.90
21487;DHT22;10905;50.822;4.336;2023-03-05T17:03:47;7.00;99.90
21487;DHT22;10905;50.822;4.336;2023-03-05T17:06:20;6.90;99.90
21487;DHT22;10905;50.822;4.336;2023-03-05T17:08:47;6.90;99.90
21487;DHT22;10905;50.822;4.336;2023-03-05T17:11:13;6.80;99.90
21487;DHT22;10905;50.822;4.336;2023-03-05T17:13:40;6.80;99.90
21487;DHT22;10905;50.822;4.336;2023-03-05T17:16:08;6.70;99.90
21487;DHT22;10905;50.822;4.336;2023-03-05T17:18:34;6.70;99.90
21487;DHT22;10905;50.822;4.336;2023-03-05T17:21:01;6.70;99.90
21487;DHT22;10905;50.822;4.336;2023-03-05T17:23:27;6.70;99.90
21487;DHT22;10905;50.822;4.336;2023-03-05T17:25:53;6.80;99.90
21487;DHT22;10905;50.822;4.336;2023-03-05T17:28:19;6.60;99.90